createdAt,value
2023-03-28T00:00:49.268Z,1.80
2023-03-28T00:03:22.467Z,1.70
2023-03-28T00:05:51.385Z,1.35
2023-03-28T00:08:19.144Z,1.67
2023-03-28T00:10:46.798Z,1.80
2023-03-28T00:13:14.436Z,1.70
2023-03-28T00:15:43.123Z,1.65
2023-03-28T00:18:11.709Z,1.70
2023-03-28T00:20:40.025Z,1.50
2023-03-28T00:23:08.146Z,1.48
2023-03-28T00:25:36.112Z,1.70
2023-03-28T00:28:03.703Z,1.50
2023-03-28T00:30:33.691Z,1.70
2023-03-28T00:33:00.986Z,1.60
2023-03-28T00:35:28.321Z,1.60
2023-03-28T00:37:57.950Z,1.47
2023-03-28T00:40:26.403Z,1.52
2023-03-28T00:42:55.845Z,1.70
2023-03-28T00:45:23.733Z,1.80
2023-03-28T00:48:15.437Z,1.40
2023-03-28T00:50:46.903Z,1.60
2023-03-28T00:53:17.045Z,1.70
2023-03-28T00:55:50.707Z,1.58
2023-03-28T00:58:22.328Z,1.45
2023-03-28T01:00:50.763Z,1.70
2023-03-28T01:03:19.238Z,1.90
2023-03-28T01:05:47.964Z,1.80
2023-03-28T01:08:22.605Z,1.58
2023-03-28T01:10:49.828Z,1.60
2023-03-28T01:13:26.030Z,1.90
2023-03-28T01:15:53.359Z,1.75
2023-03-28T01:18:23.899Z,1.70
2023-03-28T01:21:06.641Z,1.98
2023-03-28T01:23:43.145Z,1.80
2023-03-28T01:26:28.976Z,1.88
2023-03-28T01:28:56.475Z,1.60
2023-03-28T01:31:26.786Z,1.98
2023-03-28T01:33:54.044Z,1.88
2023-03-28T01:36:35.470Z,1.80
2023-03-28T01:39:12.854Z,1.73
2023-03-28T01:41:43.173Z,2.00
2023-03-28T01:44:10.373Z,1.67
2023-03-28T01:46:56.395Z,2.00
2023-03-28T01:49:34.352Z,1.50
2023-03-28T01:52:05.902Z,1.80
2023-03-28T01:54:39.344Z,1.67
2023-03-28T01:57:15.928Z,1.60
2023-03-28T01:59:45.690Z,1.75
2023-03-28T02:02:23.131Z,1.83
2023-03-28T02:04:57.176Z,1.75
2023-03-28T02:07:25.364Z,1.80
2023-03-28T02:09:53.690Z,1.70
2023-03-28T02:12:23.789Z,1.73
2023-03-28T02:14:52.757Z,1.63
2023-03-28T02:17:21.625Z,1.60
2023-03-28T02:19:55.419Z,1.95
2023-03-28T02:22:22.762Z,1.80
2023-03-28T02:24:51.936Z,1.93
2023-03-28T02:27:23.235Z,1.70
2023-03-28T02:29:50.770Z,1.80
2023-03-28T02:32:22.030Z,1.60
2023-03-28T02:34:49.941Z,1.75
2023-03-28T02:37:20.330Z,1.75
2023-03-28T02:40:13.880Z,1.73
2023-03-28T02:42:44.100Z,1.80
2023-03-28T02:45:14.455Z,1.80
2023-03-28T02:47:47.900Z,1.80
2023-03-28T02:50:18.821Z,1.80
2023-03-28T02:52:52.484Z,1.80
2023-03-28T02:55:29.421Z,1.98
2023-03-28T02:58:01.970Z,1.95
2023-03-28T03:00:29.696Z,1.70
2023-03-28T03:02:57.828Z,1.80
2023-03-28T03:05:25.056Z,1.70
2023-03-28T03:07:52.584Z,1.92
2023-03-28T03:10:20.183Z,2.00
2023-03-28T03:12:47.543Z,2.00
2023-03-28T03:15:17.184Z,1.80
2023-03-28T03:17:45.232Z,1.63
2023-03-28T03:20:12.706Z,1.70
2023-03-28T03:22:40.352Z,1.80
2023-03-28T03:25:08.323Z,1.58
2023-03-28T03:27:36.766Z,1.70
2023-03-28T03:30:05.329Z,1.63
2023-03-28T03:32:33.310Z,1.90
2023-03-28T03:35:01.206Z,1.65
2023-03-28T03:37:28.428Z,1.92
2023-03-28T03:39:57.863Z,1.80
2023-03-28T03:42:25.123Z,1.80
2023-03-28T03:44:54.511Z,1.70
2023-03-28T03:47:21.754Z,1.50
2023-03-28T03:49:49.002Z,1.73
2023-03-28T03:52:16.209Z,1.98
2023-03-28T03:54:43.857Z,1.80
2023-03-28T03:57:11.275Z,1.60
2023-03-28T03:59:38.617Z,1.60
2023-03-28T04:02:05.928Z,1.70
2023-03-28T04:04:33.393Z,1.83
2023-03-28T04:07:02.363Z,1.60
2023-03-28T04:09:29.682Z,1.80
2023-03-28T04:11:57.104Z,1.67
2023-03-28T04:14:24.388Z,1.67
2023-03-28T04:16:53.851Z,1.90
2023-03-28T04:19:21.412Z,1.75
2023-03-28T04:21:49.369Z,1.70
2023-03-28T04:24:17.073Z,1.98
2023-03-28T04:26:45.881Z,2.00
2023-03-28T04:29:13.561Z,1.80
2023-03-28T04:31:40.866Z,1.80
2023-03-28T04:34:08.849Z,1.63
2023-03-28T04:36:41.018Z,1.70
2023-03-28T04:39:08.702Z,1.90
2023-03-28T04:41:36.107Z,1.80
2023-03-28T04:44:03.393Z,1.55
2023-03-28T04:46:30.683Z,1.83
2023-03-28T04:48:57.968Z,1.63
2023-03-28T04:51:25.292Z,1.70
2023-03-28T04:53:52.617Z,2.00
2023-03-28T04:56:19.847Z,1.92
2023-03-28T04:58:47.140Z,1.80
2023-03-28T05:01:14.685Z,1.67
2023-03-28T05:03:41.974Z,1.50
2023-03-28T05:06:09.364Z,1.93
2023-03-28T05:08:36.602Z,1.70
2023-03-28T05:11:03.823Z,1.60
2023-03-28T05:13:31.139Z,1.90
2023-03-28T05:15:58.409Z,1.87
2023-03-28T05:18:25.746Z,1.77
2023-03-28T05:20:52.983Z,1.90
2023-03-28T05:23:20.262Z,1.60
2023-03-28T05:25:51.972Z,1.80
2023-03-28T05:28:19.226Z,1.70
2023-03-28T05:30:46.848Z,1.50
2023-03-28T05:33:14.171Z,1.80
2023-03-28T05:35:41.528Z,7.77
2023-03-28T05:38:09.060Z,5.50
2023-03-28T05:40:37.269Z,3.15
2023-03-28T05:45:31.991Z,6.45
2023-03-28T05:48:01.915Z,5.27
2023-03-28T05:50:31.501Z,5.50
2023-03-28T05:52:58.754Z,6.47
2023-03-28T05:55:25.995Z,7.07
2023-03-28T05:57:53.226Z,7.47
2023-03-28T06:00:20.695Z,7.20
2023-03-28T06:05:18.454Z,8.27
2023-03-28T06:07:45.770Z,8.60
2023-03-28T06:10:13.729Z,8.67
2023-03-28T06:12:41.082Z,8.70
2023-03-28T06:15:09.298Z,8.93
2023-03-28T06:20:09.824Z,8.75
2023-03-28T06:22:37.817Z,8.55
2023-03-28T06:25:06.174Z,9.32
2023-03-28T06:27:33.811Z,8.80
2023-03-28T06:30:01.366Z,8.25
2023-03-28T06:32:28.817Z,7.95
2023-03-28T06:34:56.096Z,8.75
2023-03-28T06:37:23.359Z,8.43
2023-03-28T06:39:53.053Z,9.70
2023-03-28T06:42:20.324Z,8.55
2023-03-28T06:44:47.564Z,8.82
2023-03-28T06:47:14.813Z,8.70
2023-03-28T06:49:42.062Z,8.33
2023-03-28T06:52:09.301Z,8.95
2023-03-28T06:54:36.564Z,8.90
2023-03-28T06:57:04.722Z,8.77
2023-03-28T06:59:32.147Z,8.63
2023-03-28T07:01:59.448Z,8.30
2023-03-28T07:04:26.737Z,9.50
2023-03-28T07:06:53.959Z,8.10
2023-03-28T07:09:21.226Z,8.55
2023-03-28T07:11:48.452Z,8.20
2023-03-28T07:14:15.762Z,8.80
2023-03-28T07:16:45.806Z,8.60
2023-03-28T07:19:13.078Z,8.27
2023-03-28T07:21:40.305Z,8.00
2023-03-28T07:24:07.730Z,8.40
2023-03-28T07:26:34.951Z,7.65
2023-03-28T07:29:02.119Z,8.13
2023-03-28T07:31:29.360Z,7.75
2023-03-28T07:33:58.187Z,7.93
2023-03-28T07:36:27.228Z,7.93
2023-03-28T07:38:54.891Z,8.10
2023-03-28T07:41:24.935Z,7.70
2023-03-28T07:43:52.105Z,7.68
2023-03-28T07:46:20.949Z,7.70
2023-03-28T07:48:48.512Z,7.38
2023-03-28T07:51:16.003Z,7.22
2023-03-28T07:53:43.354Z,7.53
2023-03-28T07:56:12.160Z,7.33
2023-03-28T07:58:40.909Z,7.15
2023-03-28T08:01:09.149Z,7.10
2023-03-28T08:03:36.805Z,7.57
2023-03-28T08:06:11.332Z,7.45
2023-03-28T08:08:50.390Z,7.25
2023-03-28T08:11:17.631Z,6.85
2023-03-28T08:13:44.872Z,7.37
2023-03-28T08:16:12.114Z,7.50
2023-03-28T08:18:39.389Z,7.70
2023-03-28T08:21:08.085Z,7.00
2023-03-28T08:23:35.485Z,6.60
2023-03-28T08:26:05.090Z,7.35
2023-03-28T08:28:36.459Z,10.88
2023-03-28T08:31:09.485Z,9.93
2023-03-28T08:33:37.003Z,9.23
2023-03-28T08:36:04.381Z,9.00
2023-03-28T08:38:31.749Z,9.00
2023-03-28T08:41:18.128Z,8.23
2023-03-28T08:43:45.375Z,7.95
2023-03-28T08:46:14.151Z,8.43
2023-03-28T08:48:43.182Z,7.75
2023-03-28T08:51:19.269Z,8.23
2023-03-28T08:54:09.771Z,8.02
2023-03-28T08:56:43.711Z,8.40
2023-03-28T08:59:40.171Z,8.32
2023-03-28T09:02:17.978Z,8.20
2023-03-28T09:07:31.385Z,7.53
2023-03-28T09:10:14.037Z,7.97
2023-03-28T09:12:48.597Z,7.10
2023-03-28T09:15:19.867Z,7.35
2023-03-28T09:17:47.096Z,8.10
2023-03-28T09:20:20.474Z,6.70
2023-03-28T09:23:04.241Z,6.65
2023-03-28T09:25:36.048Z,6.53
2023-03-28T09:28:07.446Z,6.47
2023-03-28T09:30:42.137Z,6.75
2023-03-28T09:33:17.070Z,6.30
2023-03-28T09:35:46.095Z,6.18
2023-03-28T09:38:36.618Z,6.72
2023-03-28T09:41:07.150Z,6.10
2023-03-28T09:43:39.940Z,6.68
2023-03-28T09:46:14.137Z,6.47
2023-03-28T09:48:41.473Z,6.05
2023-03-28T09:51:15.498Z,6.20
2023-03-28T09:53:42.701Z,5.70
2023-03-28T09:56:22.565Z,6.43
2023-03-28T09:58:49.825Z,5.72
2023-03-28T10:01:31.691Z,5.53
2023-03-28T10:04:00.336Z,4.93
2023-03-28T10:06:32.325Z,5.70
2023-03-28T10:09:10.319Z,5.03
2023-03-28T10:11:57.429Z,5.40
2023-03-28T10:14:47.282Z,5.07
2023-03-28T10:17:31.624Z,5.22
2023-03-28T10:20:04.828Z,4.88
2023-03-28T10:22:33.916Z,5.05
2023-03-28T10:25:01.730Z,5.25
2023-03-28T10:27:32.732Z,4.75
2023-03-28T10:30:08.981Z,5.45
2023-03-28T10:32:36.650Z,5.03
2023-03-28T10:35:21.419Z,4.70
2023-03-28T10:37:49.232Z,4.93
2023-03-28T10:40:19.958Z,4.80
2023-03-28T10:42:50.312Z,4.40
2023-03-28T10:45:23.787Z,4.75
2023-03-28T10:47:52.394Z,4.15
2023-03-28T10:50:36.911Z,4.47
2023-03-28T10:53:04.361Z,4.70
2023-03-28T10:55:37.130Z,4.47
2023-03-28T10:58:08.588Z,4.65
2023-03-28T11:00:40.754Z,4.22
2023-03-28T11:03:12.187Z,4.70
2023-03-28T11:05:40.559Z,4.40
2023-03-28T11:08:33.869Z,4.40
2023-03-28T11:11:04.129Z,4.80
2023-03-28T11:13:50.300Z,4.28
2023-03-28T11:16:47.050Z,3.95
2023-03-28T11:19:26.507Z,3.80
2023-03-28T11:21:56.721Z,4.03
2023-03-28T11:24:36.091Z,3.72
2023-03-28T11:27:15.526Z,3.75
2023-03-28T11:29:52.388Z,3.88
2023-03-28T11:32:19.644Z,3.55
2023-03-28T11:34:59.186Z,3.47
2023-03-28T11:37:30.861Z,2.90
2023-03-28T11:40:07.936Z,3.13
2023-03-28T11:43:02.739Z,2.90
2023-03-28T11:45:50.273Z,3.78
2023-03-28T11:48:32.412Z,4.20
2023-03-28T11:51:04.973Z,3.75
2023-03-28T11:53:35.420Z,3.47
2023-03-28T11:56:21.516Z,3.50
2023-03-28T11:58:51.366Z,3.47
2023-03-28T12:01:22.234Z,3.40
2023-03-28T12:04:01.934Z,3.13
2023-03-28T12:06:35.614Z,3.10
2023-03-28T12:09:13.462Z,3.38
2023-03-28T12:11:43.169Z,3.67
2023-03-28T12:14:39.536Z,3.30
2023-03-28T12:17:16.243Z,2.80
2023-03-28T12:19:44.013Z,3.25
2023-03-28T12:22:34.288Z,4.03
2023-03-28T12:25:20.281Z,4.20
2023-03-28T12:27:53.488Z,3.80
2023-03-28T12:30:30.006Z,3.65
2023-03-28T12:33:02.727Z,3.72
2023-03-28T12:35:42.456Z,4.03
2023-03-28T12:38:23.119Z,4.05
2023-03-28T12:40:59.261Z,3.72
2023-03-28T12:43:34.407Z,3.78
2023-03-28T12:46:03.236Z,3.90
2023-03-28T12:48:33.968Z,4.05
2023-03-28T12:51:03.923Z,3.58
2023-03-28T12:53:32.652Z,3.75
2023-03-28T12:56:00.590Z,3.70
2023-03-28T13:01:04.269Z,3.45
2023-03-28T13:03:38.025Z,3.63
2023-03-28T13:06:12.098Z,3.35
2023-03-28T13:08:48.707Z,3.50
2023-03-28T13:11:21.920Z,3.72
2023-03-28T13:14:07.978Z,3.30
2023-03-28T13:16:44.892Z,3.30
2023-03-28T13:19:13.063Z,3.20
2023-03-28T13:24:12.026Z,3.20
2023-03-28T13:26:58.747Z,3.03
2023-03-28T13:29:43.355Z,3.20
2023-03-28T13:32:14.229Z,2.85
2023-03-28T13:34:46.904Z,3.45
2023-03-28T13:37:24.895Z,3.08
2023-03-28T13:42:32.839Z,3.00
2023-03-28T13:45:02.221Z,3.30
2023-03-28T13:47:35.616Z,3.38
2023-03-28T13:50:08.785Z,2.90
2023-03-28T13:52:36.187Z,3.17
2023-03-28T13:55:04.830Z,2.90
2023-03-28T13:57:32.120Z,3.13
2023-03-28T14:00:00.736Z,3.37
2023-03-28T14:02:33.460Z,5.25
2023-03-28T14:05:21.641Z,5.40
2023-03-28T14:07:50.207Z,4.70
2023-03-28T14:10:31.292Z,4.40
2023-03-28T14:13:00.949Z,4.00
2023-03-28T14:15:30.661Z,3.97
2023-03-28T14:17:58.807Z,3.10
2023-03-28T14:23:00.407Z,3.40
2023-03-28T14:25:28.631Z,3.00
2023-03-28T14:27:57.064Z,2.67
2023-03-28T14:30:28.655Z,2.88
2023-03-28T14:33:02.270Z,3.25
2023-03-28T14:35:30.739Z,2.75
2023-03-28T14:37:59.095Z,2.70
2023-03-28T14:40:26.312Z,3.13
2023-03-28T14:42:59.754Z,2.92
2023-03-28T14:45:28.112Z,2.20
2023-03-28T14:47:56.788Z,2.47
2023-03-28T14:50:26.460Z,2.50
2023-03-28T14:52:53.678Z,2.60
2023-03-28T14:55:23.289Z,2.42
2023-03-28T14:57:52.457Z,2.28
2023-03-28T15:00:23.316Z,2.35
2023-03-28T15:02:52.127Z,2.53
2023-03-28T15:05:20.820Z,2.70
2023-03-28T15:07:54.444Z,2.25
2023-03-28T15:10:21.592Z,2.55
2023-03-28T15:12:51.775Z,2.30
2023-03-28T15:15:23.936Z,2.40
2023-03-28T15:17:55.384Z,2.60
2023-03-28T15:20:25.864Z,2.47
2023-03-28T15:22:56.353Z,2.50
2023-03-28T15:25:24.139Z,2.65
2023-03-28T15:27:56.023Z,3.13
2023-03-28T15:30:23.777Z,2.28
2023-03-28T15:32:51.545Z,2.17
2023-03-28T15:35:26.995Z,2.25
2023-03-28T15:38:00.602Z,2.58
2023-03-28T15:40:29.740Z,2.50
2023-03-28T15:42:57.076Z,2.60
2023-03-28T15:45:47.085Z,2.90
2023-03-28T15:48:16.015Z,2.45
2023-03-28T15:50:45.120Z,2.67
2023-03-28T15:53:15.993Z,2.40
2023-03-28T15:55:43.920Z,2.30
2023-03-28T15:58:14.097Z,2.58
2023-03-28T16:00:42.863Z,2.38
2023-03-28T16:03:19.781Z,2.30
2023-03-28T16:06:01.814Z,2.55
2023-03-28T16:08:35.163Z,2.60
2023-03-28T16:11:04.042Z,2.60
2023-03-28T16:13:33.170Z,2.40
2023-03-28T16:16:00.751Z,2.00
2023-03-28T16:18:28.131Z,2.50
2023-03-28T16:20:55.557Z,2.60
2023-03-28T16:23:22.817Z,2.65
2023-03-28T16:25:50.298Z,2.30
2023-03-28T16:28:18.524Z,2.13
2023-03-28T16:30:46.263Z,2.60
2023-03-28T16:33:13.606Z,2.22
2023-03-28T16:35:41.186Z,2.50
2023-03-28T16:38:10.724Z,2.50
2023-03-28T16:40:37.995Z,2.55
2023-03-28T16:43:05.553Z,2.03
2023-03-28T16:45:33.206Z,2.60
2023-03-28T16:48:01.222Z,2.75
2023-03-28T16:50:28.546Z,2.13
2023-03-28T16:52:55.861Z,2.40
2023-03-28T16:55:23.875Z,2.27
2023-03-28T16:57:51.181Z,2.20
2023-03-28T17:00:20.039Z,2.47
2023-03-28T17:02:48.204Z,2.30
2023-03-28T17:07:45.440Z,2.40
2023-03-28T17:10:12.795Z,2.45
2023-03-28T17:12:40.073Z,2.23
2023-03-28T17:15:08.935Z,1.90
2023-03-28T17:17:36.357Z,2.05
2023-03-28T17:20:03.660Z,2.38
2023-03-28T17:22:31.198Z,2.27
2023-03-28T17:25:00.415Z,2.80
2023-03-28T17:27:27.779Z,2.47
2023-03-28T17:29:55.089Z,1.90
2023-03-28T17:32:22.692Z,2.40
2023-03-28T17:34:50.003Z,2.10
2023-03-28T17:37:17.221Z,2.60
2023-03-28T17:39:45.440Z,2.27
2023-03-28T17:44:40.051Z,2.22
2023-03-28T17:47:07.783Z,2.33
2023-03-28T17:49:35.092Z,2.40
2023-03-28T17:52:02.402Z,2.07
2023-03-28T17:54:29.729Z,2.10
2023-03-28T17:56:57.096Z,2.10
2023-03-28T17:59:24.436Z,1.92
2023-03-28T18:01:51.799Z,1.77
2023-03-28T18:04:19.054Z,2.30
2023-03-28T18:06:46.413Z,2.35
2023-03-28T18:09:13.817Z,2.55
2023-03-28T18:11:41.597Z,1.88
2023-03-28T18:14:09.252Z,2.20
2023-03-28T18:16:38.628Z,1.90
2023-03-28T18:19:07.040Z,2.08
2023-03-28T18:24:01.452Z,2.07
2023-03-28T18:26:28.902Z,2.10
2023-03-28T18:28:56.217Z,2.10
2023-03-28T18:31:28.298Z,1.80
2023-03-28T18:33:57.200Z,1.90
2023-03-28T18:36:24.869Z,2.13
2023-03-28T18:38:53.113Z,1.70
2023-03-28T18:43:48.035Z,1.98
2023-03-28T18:46:16.188Z,1.70
2023-03-28T18:48:44.826Z,2.15
2023-03-28T18:51:12.439Z,1.95
2023-03-28T18:53:39.727Z,2.00
2023-03-28T18:56:08.102Z,1.80
2023-03-28T18:58:37.227Z,2.10
2023-03-28T19:01:05.001Z,2.20
2023-03-28T19:03:40.085Z,2.00
2023-03-28T19:06:08.122Z,1.52
2023-03-28T19:08:35.574Z,2.00
2023-03-28T19:11:07.560Z,1.90
2023-03-28T19:13:34.924Z,1.73
2023-03-28T19:16:04.228Z,1.80
2023-03-28T19:18:33.347Z,2.10
2023-03-28T19:21:01.109Z,1.77
2023-03-28T19:23:28.883Z,1.67
2023-03-28T19:25:56.587Z,1.67
2023-03-28T19:28:24.074Z,1.80
2023-03-28T19:31:01.492Z,1.90
2023-03-28T19:33:29.283Z,1.92
2023-03-28T19:35:56.988Z,1.70
2023-03-28T19:38:25.821Z,1.70
2023-03-28T19:40:59.470Z,1.60
2023-03-28T19:43:27.305Z,1.70
2023-03-28T19:45:54.643Z,1.60
2023-03-28T19:48:22.311Z,1.53
2023-03-28T19:50:50.597Z,1.60
2023-03-28T19:53:17.816Z,1.50
2023-03-28T19:55:51.284Z,1.63
2023-03-28T19:58:18.504Z,1.65
2023-03-28T20:00:45.805Z,1.67
2023-03-28T20:03:13.034Z,1.57
2023-03-28T20:05:43.989Z,1.53
2023-03-28T20:08:11.251Z,1.60
2023-03-28T20:10:42.310Z,1.50
2023-03-28T20:13:09.755Z,1.75
2023-03-28T20:15:43.909Z,1.40
2023-03-28T20:18:15.349Z,1.40
2023-03-28T20:20:45.161Z,1.50
2023-03-28T20:23:12.344Z,1.73
2023-03-28T20:25:39.560Z,1.35
2023-03-28T20:28:09.965Z,1.60
2023-03-28T20:30:37.991Z,1.60
2023-03-28T20:33:05.385Z,1.35
2023-03-28T20:35:32.766Z,1.48
2023-03-28T20:38:00.224Z,1.30
2023-03-28T20:40:27.549Z,1.40
2023-03-28T20:42:55.095Z,1.30
2023-03-28T20:45:22.364Z,1.42
2023-03-28T20:47:56.031Z,1.60
2023-03-28T20:50:23.868Z,1.70
2023-03-28T20:52:51.772Z,1.58
2023-03-28T20:55:19.716Z,1.45
2023-03-28T20:57:47.970Z,1.50
2023-03-28T21:02:46.113Z,1.60
2023-03-28T21:05:14.740Z,1.48
2023-03-28T21:07:44.090Z,1.65
2023-03-28T21:10:14.179Z,1.60
2023-03-28T21:12:43.747Z,1.45
2023-03-28T21:15:11.770Z,1.48
2023-03-28T21:17:39.537Z,1.50
2023-03-28T21:20:10.614Z,1.60
2023-03-28T21:22:40.988Z,1.50
2023-03-28T21:25:10.558Z,1.60
2023-03-28T21:27:38.181Z,1.40
2023-03-28T21:30:08.108Z,1.50
2023-03-28T21:32:35.923Z,1.50
2023-03-28T21:35:04.224Z,1.60
2023-03-28T21:37:31.937Z,1.58
2023-03-28T21:39:59.143Z,1.63
2023-03-28T21:42:27.197Z,1.38
2023-03-28T21:44:54.409Z,1.40
2023-03-28T21:47:21.694Z,1.70
2023-03-28T21:49:49.640Z,1.60
2023-03-28T21:52:16.910Z,1.45
2023-03-28T21:54:46.727Z,1.55
2023-03-28T21:57:14.023Z,1.40
2023-03-28T21:59:45.390Z,1.87
2023-03-28T22:02:13.737Z,1.48
2023-03-28T22:04:42.952Z,1.50
2023-03-28T22:07:10.790Z,1.45
2023-03-28T22:09:39.259Z,1.40
2023-03-28T22:12:09.577Z,1.30
2023-03-28T22:14:39.309Z,1.60
2023-03-28T22:17:07.282Z,1.27
2023-03-28T22:19:34.610Z,1.52
2023-03-28T22:22:01.956Z,1.30
2023-03-28T22:24:29.741Z,1.70
2023-03-28T22:26:57.289Z,1.17
2023-03-28T22:29:24.697Z,1.30
2023-03-28T22:31:51.973Z,1.40
2023-03-28T22:34:21.031Z,1.20
2023-03-28T22:36:50.098Z,1.33
2023-03-28T22:39:17.945Z,1.30
2023-03-28T22:41:46.114Z,1.40
2023-03-28T22:46:41.133Z,1.40
2023-03-28T22:49:10.074Z,1.58
2023-03-28T22:51:46.156Z,1.23
2023-03-28T22:54:16.070Z,1.30
2023-03-28T22:56:45.995Z,1.58
2023-03-28T22:59:13.450Z,1.42
2023-03-28T23:01:40.758Z,1.20
2023-03-28T23:04:08.019Z,1.53
2023-03-28T23:06:36.078Z,1.73
2023-03-28T23:09:03.322Z,1.20
2023-03-28T23:11:30.554Z,1.27
2023-03-28T23:13:57.793Z,1.20
2023-03-28T23:16:25.106Z,1.20
2023-03-28T23:18:52.317Z,1.40
2023-03-28T23:21:20.152Z,1.30
2023-03-28T23:23:47.546Z,1.23
2023-03-28T23:26:15.331Z,1.20
2023-03-28T23:28:42.560Z,1.27
2023-03-28T23:31:10.746Z,1.23
2023-03-28T23:36:06.136Z,1.40
2023-03-28T23:38:33.374Z,1.20
2023-03-28T23:41:01.027Z,1.30
2023-03-28T23:43:29.759Z,1.17
2023-03-28T23:45:57.226Z,1.33
2023-03-28T23:48:24.540Z,1.35
2023-03-28T23:50:51.748Z,1.40
2023-03-28T23:53:19.000Z,1.23
2023-03-28T23:55:46.226Z,1.20
2023-03-28T23:58:13.476Z,1.40
